KCKM/CKM METAR and TAF weather

Enter ICAO airport designator
Station Type Date Time Source
KCKM METAR 2018/12/18 11:55 UTC NOAA

KCKM 181155Z AUTO 00000KT 10SM SCT015 05/05 A3017 RMK A01


Station Type Date Time Source
KCKM Decoded METAR 2018/12/18 11:55 UTC NOAA

Station name not available
Dec 18, 2018 - 06:55 AM EST / 2018.12.18 1155 UTC
Wind: Calm:0
Visibility: 10 mile(s):0
Sky conditions: partly cloudy
Temperature: 41 F (5 C)
Dew Point: 41 F (5 C)
Relative Humidity: 100%
Pressure (altimeter): 30.17 in. Hg (1021 hPa)
ob: KCKM 181155Z AUTO 00000KT 10SM SCT015 05/05 A3017 RMK A01
cycle: 12

Station Type Date Time Source
KCKM TAF UTC NOAA

Error!


Example: see airport list